sensor_id;sensor_type;location;lat;lon;timestamp;pressure;altitude;pressure_sealevel;temperature;humidity
9187;BME280;7273;48.902;9.410;2024-03-02T00:00:19;96894.06;;;7.02;77.13
9187;BME280;7273;48.902;9.410;2024-03-02T00:02:48;96901.88;;;6.99;77.06
9187;BME280;7273;48.902;9.410;2024-03-02T00:05:19;96903.19;;;7.01;77.14
9187;BME280;7273;48.902;9.410;2024-03-02T00:07:47;96897.28;;;6.99;76.80
9187;BME280;7273;48.902;9.410;2024-03-02T00:10:20;96892.72;;;7.00;77.44
9187;BME280;7273;48.902;9.410;2024-03-02T00:12:50;96894.09;;;6.97;77.12
9187;BME280;7273;48.902;9.410;2024-03-02T00:18:02;96892.44;;;7.01;77.44
9187;BME280;7273;48.902;9.410;2024-03-02T00:20:30;96893.78;;;7.04;77.35
9187;BME280;7273;48.902;9.410;2024-03-02T00:23:04;96889.47;;;7.03;76.98
9187;BME280;7273;48.902;9.410;2024-03-02T00:25:42;96895.94;;;7.02;77.27
9187;BME280;7273;48.902;9.410;2024-03-02T00:28:20;96896.22;;;7.00;76.82
9187;BME280;7273;48.902;9.410;2024-03-02T00:31:14;96894.56;;;7.04;76.80
9187;BME280;7273;48.902;9.410;2024-03-02T00:33:44;96895.94;;;7.02;77.11
9187;BME280;7273;48.902;9.410;2024-03-02T00:36:12;96901.06;;;6.98;77.37
9187;BME280;7273;48.902;9.410;2024-03-02T00:38:49;96908.03;;;6.99;76.96
9187;BME280;7273;48.902;9.410;2024-03-02T00:41:30;96912.91;;;6.97;76.80
9187;BME280;7273;48.902;9.410;2024-03-02T00:44:03;96907.56;;;6.92;77.06
9187;BME280;7273;48.902;9.410;2024-03-02T00:46:34;96906.75;;;6.92;77.08
9187;BME280;7273;48.902;9.410;2024-03-02T00:49:02;96908.63;;;6.91;76.88
9187;BME280;7273;48.902;9.410;2024-03-02T00:51:29;96905.44;;;6.89;77.74
9187;BME280;7273;48.902;9.410;2024-03-02T00:53:58;96898.22;;;6.84;77.57
9187;BME280;7273;48.902;9.410;2024-03-02T00:56:25;96899.03;;;6.85;77.49
9187;BME280;7273;48.902;9.410;2024-03-02T00:58:52;96897.69;;;6.82;77.54
9187;BME280;7273;48.902;9.410;2024-03-02T01:01:18;96906.31;;;6.79;76.90
9187;BME280;7273;48.902;9.410;2024-03-02T01:03:45;96902.03;;;6.78;77.35
9187;BME280;7273;48.902;9.410;2024-03-02T01:06:11;96908.00;;;6.70;77.14
9187;BME280;7273;48.902;9.410;2024-03-02T01:08:38;96903.16;;;6.72;77.50
9187;BME280;7273;48.902;9.410;2024-03-02T01:11:04;96907.75;;;6.67;77.71
9187;BME280;7273;48.902;9.410;2024-03-02T01:13:30;96901.81;;;6.70;77.39
9187;BME280;7273;48.902;9.410;2024-03-02T01:15:56;96905.88;;;6.67;77.68
9187;BME280;7273;48.902;9.410;2024-03-02T01:18:47;96913.97;;;6.62;77.49
9187;BME280;7273;48.902;9.410;2024-03-02T06:20:42;96886.16;;;5.01;78.24
9187;BME280;7273;48.902;9.410;2024-03-02T06:23:07;96889.38;;;4.98;78.20
9187;BME280;7273;48.902;9.410;2024-03-02T06:25:33;96887.78;;;4.87;78.19
9187;BME280;7273;48.902;9.410;2024-03-02T06:27:58;96896.63;;;4.87;78.26
9187;BME280;7273;48.902;9.410;2024-03-02T06:30:24;96900.13;;;4.83;78.25
9187;BME280;7273;48.902;9.410;2024-03-02T06:32:49;96902.50;;;4.99;78.45
9187;BME280;7273;48.902;9.410;2024-03-02T06:35:15;96900.63;;;5.10;78.64
9187;BME280;7273;48.902;9.410;2024-03-02T06:37:40;96900.34;;;5.21;78.46
9187;BME280;7273;48.902;9.410;2024-03-02T06:40:07;96897.91;;;5.30;78.43
9187;BME280;7273;48.902;9.410;2024-03-02T06:42:35;96903.78;;;5.37;78.38
9187;BME280;7273;48.902;9.410;2024-03-02T06:45:02;96904.31;;;5.44;78.23
9187;BME280;7273;48.902;9.410;2024-03-02T06:47:28;96901.06;;;5.52;77.96
9187;BME280;7273;48.902;9.410;2024-03-02T06:49:53;96902.41;;;5.55;77.98
9187;BME280;7273;48.902;9.410;2024-03-02T06:52:18;96901.59;;;5.54;77.74
9187;BME280;7273;48.902;9.410;2024-03-02T06:54:45;96901.88;;;5.58;77.59
9187;BME280;7273;48.902;9.410;2024-03-02T06:57:10;96898.66;;;5.45;77.98
9187;BME280;7273;48.902;9.410;2024-03-02T06:59:36;96897.34;;;5.48;77.98
9187;BME280;7273;48.902;9.410;2024-03-02T07:02:02;96895.72;;;5.47;77.77
9187;BME280;7273;48.902;9.410;2024-03-02T07:04:27;96898.13;;;5.43;77.86
9187;BME280;7273;48.902;9.410;2024-03-02T07:06:52;96901.09;;;5.42;77.69
9187;BME280;7273;48.902;9.410;2024-03-02T07:09:18;96903.00;;;5.41;77.69
9187;BME280;7273;48.902;9.410;2024-03-02T07:11:47;96897.34;;;5.43;77.59
9187;BME280;7273;48.902;9.410;2024-03-02T07:14:13;96897.38;;;5.38;78.17
9187;BME280;7273;48.902;9.410;2024-03-02T07:16:38;96898.41;;;5.37;78.41
9187;BME280;7273;48.902;9.410;2024-03-02T07:19:05;96903.78;;;5.37;78.41
9187;BME280;7273;48.902;9.410;2024-03-02T07:21:31;96905.41;;;5.43;78.30
9187;BME280;7273;48.902;9.410;2024-03-02T07:23:57;96902.41;;;5.55;78.65
9187;BME280;7273;48.902;9.410;2024-03-02T07:26:24;96901.03;;;5.67;78.32
9187;BME280;7273;48.902;9.410;2024-03-02T07:28:50;96904.50;;;5.73;78.59
9187;BME280;7273;48.902;9.410;2024-03-02T07:31:16;96896.19;;;5.84;78.19
9187;BME280;7273;48.902;9.410;2024-03-02T07:33:44;96898.78;;;5.94;77.73
9187;BME280;7273;48.902;9.410;2024-03-02T07:36:09;96899.56;;;6.00;78.17
9187;BME280;7273;48.902;9.410;2024-03-02T07:38:35;96901.16;;;6.06;78.02
9187;BME280;7273;48.902;9.410;2024-03-02T07:41:01;96904.31;;;6.18;78.25
9187;BME280;7273;48.902;9.410;2024-03-02T07:43:26;96908.81;;;6.27;77.93
9187;BME280;7273;48.902;9.410;2024-03-02T07:45:52;96907.66;;;6.38;79.25
9187;BME280;7273;48.902;9.410;2024-03-02T07:48:17;96913.22;;;6.52;78.13
9187;BME280;7273;48.902;9.410;2024-03-02T07:50:43;96919.81;;;6.69;76.90
9187;BME280;7273;48.902;9.410;2024-03-02T07:53:08;96912.78;;;6.78;78.25
9187;BME280;7273;48.902;9.410;2024-03-02T07:55:34;96927.16;;;6.93;78.40
9187;BME280;7273;48.902;9.410;2024-03-02T07:58:02;96923.53;;;7.07;77.98
9187;BME280;7273;48.902;9.410;2024-03-02T08:00:28;96920.41;;;7.29;78.25
9187;BME280;7273;48.902;9.410;2024-03-02T08:02:54;96917.13;;;7.60;77.43
9187;BME280;7273;48.902;9.410;2024-03-02T08:05:19;96924.88;;;7.90;77.64
9187;BME280;7273;48.902;9.410;2024-03-02T08:07:45;96918.44;;;8.10;77.63
9187;BME280;7273;48.902;9.410;2024-03-02T08:10:11;96926.56;;;8.29;78.02
9187;BME280;7273;48.902;9.410;2024-03-02T08:12:37;96915.28;;;8.45;77.60
9187;BME280;7273;48.902;9.410;2024-03-02T08:15:03;96913.56;;;8.54;76.80
9187;BME280;7273;48.902;9.410;2024-03-02T08:17:29;96917.19;;;8.63;76.63
9187;BME280;7273;48.902;9.410;2024-03-02T08:19:55;96929.00;;;8.67;76.25
9187;BME280;7273;48.902;9.410;2024-03-02T08:22:21;96928.34;;;8.75;75.95
9187;BME280;7273;48.902;9.410;2024-03-02T08:24:46;96924.25;;;8.78;75.89
9187;BME280;7273;48.902;9.410;2024-03-02T08:27:12;96920.41;;;8.84;75.45
9187;BME280;7273;48.902;9.410;2024-03-02T08:29:37;96914.50;;;8.82;75.36
9187;BME280;7273;48.902;9.410;2024-03-02T08:32:03;96905.75;;;8.90;75.45
9187;BME280;7273;48.902;9.410;2024-03-02T08:34:29;96909.03;;;8.87;75.19
9187;BME280;7273;48.902;9.410;2024-03-02T08:36:54;96911.72;;;8.87;74.71
9187;BME280;7273;48.902;9.410;2024-03-02T08:39:20;96904.63;;;8.91;74.72
9187;BME280;7273;48.902;9.410;2024-03-02T08:41:46;96903.56;;;8.92;74.41
9187;BME280;7273;48.902;9.410;2024-03-02T08:44:13;96902.16;;;8.94;74.76
9187;BME280;7273;48.902;9.410;2024-03-02T08:46:41;96906.94;;;8.97;74.62
9187;BME280;7273;48.902;9.410;2024-03-02T08:49:06;96902.88;;;9.00;74.67
9187;BME280;7273;48.902;9.410;2024-03-02T08:51:32;96898.19;;;9.05;74.34
9187;BME280;7273;48.902;9.410;2024-03-02T08:53:58;96891.94;;;9.10;74.40
9187;BME280;7273;48.902;9.410;2024-03-02T08:56:24;96893.00;;;9.09;73.90
9187;BME280;7273;48.902;9.410;2024-03-02T08:58:50;96892.13;;;9.13;73.78
9187;BME280;7273;48.902;9.410;2024-03-02T09:01:16;96892.84;;;9.19;73.69
9187;BME280;7273;48.902;9.410;2024-03-02T09:03:42;96890.34;;;9.22;73.61
9187;BME280;7273;48.902;9.410;2024-03-02T09:06:10;96890.41;;;9.36;73.65
9187;BME280;7273;48.902;9.410;2024-03-02T09:08:35;96890.81;;;9.57;73.22
9187;BME280;7273;48.902;9.410;2024-03-02T09:11:02;96890.22;;;9.73;72.48
9187;BME280;7273;48.902;9.410;2024-03-02T09:13:28;96889.31;;;9.91;72.43
9187;BME280;7273;48.902;9.410;2024-03-02T09:15:54;96887.03;;;10.12;72.10
9187;BME280;7273;48.902;9.410;2024-03-02T09:18:19;96883.78;;;10.37;71.83
9187;BME280;7273;48.902;9.410;2024-03-02T09:20:44;96890.63;;;10.70;71.42
9187;BME280;7273;48.902;9.410;2024-03-02T09:23:11;96890.50;;;10.97;70.97
9187;BME280;7273;48.902;9.410;2024-03-02T09:25:36;96889.69;;;11.41;70.84
9187;BME280;7273;48.902;9.410;2024-03-02T09:28:02;96892.91;;;11.82;69.82
9187;BME280;7273;48.902;9.410;2024-03-02T09:30:28;96884.22;;;12.02;69.53
9187;BME280;7273;48.902;9.410;2024-03-02T09:32:53;96883.81;;;12.34;68.43
9187;BME280;7273;48.902;9.410;2024-03-02T09:35:19;96886.59;;;12.60;68.32
9187;BME280;7273;48.902;9.410;2024-03-02T09:37:45;96881.63;;;12.79;67.98
9187;BME280;7273;48.902;9.410;2024-03-02T09:40:10;96881.78;;;13.16;67.34
9187;BME280;7273;48.902;9.410;2024-03-02T09:42:36;96883.34;;;13.52;67.44
9187;BME280;7273;48.902;9.410;2024-03-02T09:45:02;96882.44;;;13.77;66.80
9187;BME280;7273;48.902;9.410;2024-03-02T09:47:28;96876.53;;;14.12;66.37
9187;BME280;7273;48.902;9.410;2024-03-02T09:49:53;96879.97;;;14.30;65.86
9187;BME280;7273;48.902;9.410;2024-03-02T09:52:21;96879.59;;;14.40;65.97
9187;BME280;7273;48.902;9.410;2024-03-02T09:54:47;96876.31;;;14.75;65.56
9187;BME280;7273;48.902;9.410;2024-03-02T09:57:13;96876.34;;;15.08;65.41
9187;BME280;7273;48.902;9.410;2024-03-02T09:59:38;96871.03;;;14.91;65.52
9187;BME280;7273;48.902;9.410;2024-03-02T10:02:04;96876.84;;;15.43;64.87
9187;BME280;7273;48.902;9.410;2024-03-02T10:04:32;96878.25;;;15.28;65.11
9187;BME280;7273;48.902;9.410;2024-03-02T10:07:17;96871.44;;;15.55;64.20
9187;BME280;7273;48.902;9.410;2024-03-02T10:09:47;96871.91;;;15.69;64.83
9187;BME280;7273;48.902;9.410;2024-03-02T10:12:14;96865.44;;;15.73;65.31
9187;BME280;7273;48.902;9.410;2024-03-02T10:14:41;96874.47;;;16.10;64.71
9187;BME280;7273;48.902;9.410;2024-03-02T10:17:08;96872.00;;;15.60;64.74
9187;BME280;7273;48.902;9.410;2024-03-02T10:19:34;96867.38;;;15.85;65.20
9187;BME280;7273;48.902;9.410;2024-03-02T10:22:04;96865.91;;;15.99;65.50
9187;BME280;7273;48.902;9.410;2024-03-02T10:24:42;96868.09;;;16.30;65.02
9187;BME280;7273;48.902;9.410;2024-03-02T10:27:14;96865.34;;;16.42;65.88
9187;BME280;7273;48.902;9.410;2024-03-02T10:29:40;96869.41;;;16.72;66.03
9187;BME280;7273;48.902;9.410;2024-03-02T10:32:10;96867.03;;;16.71;66.58
9187;BME280;7273;48.902;9.410;2024-03-02T10:34:44;96862.75;;;16.46;67.63
9187;BME280;7273;48.902;9.410;2024-03-02T10:37:11;96863.97;;;16.60;69.06
9187;BME280;7273;48.902;9.410;2024-03-02T10:39:36;96860.34;;;16.96;69.65
9187;BME280;7273;48.902;9.410;2024-03-02T10:42:03;96861.47;;;17.07;70.29
9187;BME280;7273;48.902;9.410;2024-03-02T10:44:30;96858.63;;;17.03;70.21
9187;BME280;7273;48.902;9.410;2024-03-02T10:46:56;96853.81;;;17.12;69.74
9187;BME280;7273;48.902;9.410;2024-03-02T10:49:23;96858.13;;;17.13;69.65
9187;BME280;7273;48.902;9.410;2024-03-02T10:51:49;96844.91;;;17.15;68.88
9187;BME280;7273;48.902;9.410;2024-03-02T10:54:14;96847.50;;;17.24;69.37
9187;BME280;7273;48.902;9.410;2024-03-02T10:56:41;96828.06;;;17.41;68.43
9187;BME280;7273;48.902;9.410;2024-03-02T10:59:35;96823.13;;;17.47;66.37
9187;BME280;7273;48.902;9.410;2024-03-02T11:02:03;96827.13;;;17.49;68.01
9187;BME280;7273;48.902;9.410;2024-03-02T11:04:30;96830.47;;;17.58;68.13
9187;BME280;7273;48.902;9.410;2024-03-02T11:07:10;96826.25;;;17.76;66.84
9187;BME280;7273;48.902;9.410;2024-03-02T11:09:40;96824.66;;;17.60;67.75
9187;BME280;7273;48.902;9.410;2024-03-02T11:12:13;96818.50;;;17.78;68.29
9187;BME280;7273;48.902;9.410;2024-03-02T11:14:41;96805.72;;;17.82;69.53
9187;BME280;7273;48.902;9.410;2024-03-02T11:17:09;96811.78;;;18.07;69.50
9187;BME280;7273;48.902;9.410;2024-03-02T11:19:38;96802.72;;;18.72;69.55
9187;BME280;7273;48.902;9.410;2024-03-02T11:22:03;96807.31;;;18.68;57.06
9187;BME280;7273;48.902;9.410;2024-03-02T11:24:30;96806.09;;;19.23;71.61
9187;BME280;7273;48.902;9.410;2024-03-02T11:26:59;96813.25;;;19.91;73.15
9187;BME280;7273;48.902;9.410;2024-03-02T11:32:05;96792.91;;;19.96;74.14
9187;BME280;7273;48.902;9.410;2024-03-02T11:34:33;96793.59;;;19.89;75.49
9187;BME280;7273;48.902;9.410;2024-03-02T11:37:01;96790.66;;;19.56;76.44
9187;BME280;7273;48.902;9.410;2024-03-02T11:39:30;96793.00;;;19.77;77.79
9187;BME280;7273;48.902;9.410;2024-03-02T11:41:56;96782.56;;;19.86;78.52
9187;BME280;7273;48.902;9.410;2024-03-02T11:44:22;96775.38;;;19.33;78.03
9187;BME280;7273;48.902;9.410;2024-03-02T11:46:58;96764.69;;;19.28;78.32
9187;BME280;7273;48.902;9.410;2024-03-02T11:49:49;96766.03;;;18.77;74.42
9187;BME280;7273;48.902;9.410;2024-03-02T11:52:15;96756.06;;;18.68;74.71
9187;BME280;7273;48.902;9.410;2024-03-02T11:54:44;96752.47;;;18.64;74.19
9187;BME280;7273;48.902;9.410;2024-03-02T11:57:21;96752.09;;;18.47;71.05
9187;BME280;7273;48.902;9.410;2024-03-02T11:59:49;96745.50;;;18.67;71.18
9187;BME280;7273;48.902;9.410;2024-03-02T12:02:17;96739.22;;;18.47;69.82
9187;BME280;7273;48.902;9.410;2024-03-02T12:04:43;96729.97;;;18.36;68.65
9187;BME280;7273;48.902;9.410;2024-03-02T12:07:10;96723.63;;;18.17;67.60
9187;BME280;7273;48.902;9.410;2024-03-02T12:09:36;96717.28;;;17.94;67.40
9187;BME280;7273;48.902;9.410;2024-03-02T12:12:09;96724.84;;;18.00;65.70
9187;BME280;7273;48.902;9.410;2024-03-02T12:14:36;96718.94;;;17.98;65.62
9187;BME280;7273;48.902;9.410;2024-03-02T12:17:03;96716.22;;;17.98;65.09
9187;BME280;7273;48.902;9.410;2024-03-02T12:19:29;96706.56;;;17.54;64.34
9187;BME280;7273;48.902;9.410;2024-03-02T12:21:59;96712.63;;;17.63;63.36
9187;BME280;7273;48.902;9.410;2024-03-02T12:24:27;96707.78;;;17.72;63.28
9187;BME280;7273;48.902;9.410;2024-03-02T12:26:53;96707.72;;;17.53;62.08
9187;BME280;7273;48.902;9.410;2024-03-02T12:29:19;96707.53;;;17.62;62.52
9187;BME280;7273;48.902;9.410;2024-03-02T12:31:48;96703.38;;;17.36;61.71
9187;BME280;7273;48.902;9.410;2024-03-02T12:34:13;96700.31;;;17.54;62.37
9187;BME280;7273;48.902;9.410;2024-03-02T12:36:39;96697.47;;;17.19;61.88
9187;BME280;7273;48.902;9.410;2024-03-02T12:39:07;96695.97;;;17.21;61.90
9187;BME280;7273;48.902;9.410;2024-03-02T12:41:38;96693.34;;;17.25;61.43
9187;BME280;7273;48.902;9.410;2024-03-02T12:44:04;96684.16;;;17.17;60.63
9187;BME280;7273;48.902;9.410;2024-03-02T12:46:31;96681.25;;;17.26;60.69
9187;BME280;7273;48.902;9.410;2024-03-02T12:48:56;96683.19;;;17.25;60.36
9187;BME280;7273;48.902;9.410;2024-03-02T12:51:21;96673.50;;;17.12;59.61
9187;BME280;7273;48.902;9.410;2024-03-02T12:53:55;96677.47;;;17.15;59.25
9187;BME280;7273;48.902;9.410;2024-03-02T12:56:21;96669.19;;;17.11;59.22
9187;BME280;7273;48.902;9.410;2024-03-02T12:58:47;96672.59;;;16.93;58.46
9187;BME280;7273;48.902;9.410;2024-03-02T13:01:14;96675.88;;;17.14;59.18
9187;BME280;7273;48.902;9.410;2024-03-02T13:03:40;96663.91;;;17.18;59.08
9187;BME280;7273;48.902;9.410;2024-03-02T13:06:06;96668.03;;;17.12;58.49
9187;BME280;7273;48.902;9.410;2024-03-02T13:08:33;96667.56;;;17.10;58.24
9187;BME280;7273;48.902;9.410;2024-03-02T13:10:58;96672.44;;;17.01;57.44
9187;BME280;7273;48.902;9.410;2024-03-02T13:13:24;96671.38;;;16.90;57.32
9187;BME280;7273;48.902;9.410;2024-03-02T13:15:49;96667.94;;;16.93;57.18
9187;BME280;7273;48.902;9.410;2024-03-02T13:18:17;96659.28;;;16.91;57.21
9187;BME280;7273;48.902;9.410;2024-03-02T13:20:43;96656.94;;;17.05;57.62
9187;BME280;7273;48.902;9.410;2024-03-02T13:23:08;96658.88;;;17.05;57.51
9187;BME280;7273;48.902;9.410;2024-03-02T13:25:34;96657.97;;;17.01;57.08
9187;BME280;7273;48.902;9.410;2024-03-02T13:27:59;96657.09;;;16.97;56.69
9187;BME280;7273;48.902;9.410;2024-03-02T13:30:25;96648.97;;;16.85;56.56
9187;BME280;7273;48.902;9.410;2024-03-02T13:32:51;96646.31;;;16.73;56.26
9187;BME280;7273;48.902;9.410;2024-03-02T13:35:16;96642.97;;;16.79;56.99
9187;BME280;7273;48.902;9.410;2024-03-02T13:37:42;96638.97;;;16.89;57.41
9187;BME280;7273;48.902;9.410;2024-03-02T13:40:07;96645.66;;;17.07;57.18
9187;BME280;7273;48.902;9.410;2024-03-02T13:42:39;96636.91;;;16.86;57.57
9187;BME280;7273;48.902;9.410;2024-03-02T13:45:05;96640.81;;;17.00;56.91
9187;BME280;7273;48.902;9.410;2024-03-02T13:47:31;96644.31;;;17.01;56.53
9187;BME280;7273;48.902;9.410;2024-03-02T13:49:57;96644.84;;;16.75;56.57
9187;BME280;7273;48.902;9.410;2024-03-02T13:52:23;96643.66;;;16.61;56.89
9187;BME280;7273;48.902;9.410;2024-03-02T13:54:51;96644.13;;;16.63;57.00
9187;BME280;7273;48.902;9.410;2024-03-02T13:57:17;96643.94;;;16.71;56.75
9187;BME280;7273;48.902;9.410;2024-03-02T13:59:45;96641.56;;;16.70;56.99
9187;BME280;7273;48.902;9.410;2024-03-02T14:02:11;96629.81;;;16.54;56.79
9187;BME280;7273;48.902;9.410;2024-03-02T14:04:37;96630.88;;;16.49;56.97
9187;BME280;7273;48.902;9.410;2024-03-02T14:07:05;96630.88;;;16.49;57.01
9187;BME280;7273;48.902;9.410;2024-03-02T14:09:33;96627.00;;;16.50;56.92
9187;BME280;7273;48.902;9.410;2024-03-02T14:11:59;96632.72;;;16.45;56.84
9187;BME280;7273;48.902;9.410;2024-03-02T14:14:26;96623.28;;;16.43;56.98
9187;BME280;7273;48.902;9.410;2024-03-02T14:16:53;96631.94;;;16.33;56.71
9187;BME280;7273;48.902;9.410;2024-03-02T14:19:19;96621.03;;;16.33;57.23
9187;BME280;7273;48.902;9.410;2024-03-02T14:21:44;96624.47;;;16.30;56.68
9187;BME280;7273;48.902;9.410;2024-03-02T14:24:10;96623.22;;;16.27;56.61
9187;BME280;7273;48.902;9.410;2024-03-02T14:26:36;96627.25;;;16.17;56.51
9187;BME280;7273;48.902;9.410;2024-03-02T14:29:02;96624.25;;;16.23;56.87
9187;BME280;7273;48.902;9.410;2024-03-02T14:31:28;96610.78;;;16.14;56.59
9187;BME280;7273;48.902;9.410;2024-03-02T14:33:54;96611.47;;;16.11;56.32
9187;BME280;7273;48.902;9.410;2024-03-02T14:36:19;96607.06;;;16.06;56.26
9187;BME280;7273;48.902;9.410;2024-03-02T14:38:45;96602.84;;;16.09;56.37
9187;BME280;7273;48.902;9.410;2024-03-02T14:41:11;96600.91;;;16.09;56.55
9187;BME280;7273;48.902;9.410;2024-03-02T14:43:36;96597.94;;;16.14;56.43
9187;BME280;7273;48.902;9.410;2024-03-02T14:46:03;96595.47;;;16.09;56.68
9187;BME280;7273;48.902;9.410;2024-03-02T14:48:28;96596.59;;;16.08;56.52
9187;BME280;7273;48.902;9.410;2024-03-02T14:50:54;96594.91;;;16.04;56.62
9187;BME280;7273;48.902;9.410;2024-03-02T14:53:20;96593.47;;;15.94;56.16
9187;BME280;7273;48.902;9.410;2024-03-02T14:55:45;96593.81;;;15.93;56.08
9187;BME280;7273;48.902;9.410;2024-03-02T14:58:11;96587.31;;;15.97;56.25
9187;BME280;7273;48.902;9.410;2024-03-02T15:00:36;96589.03;;;16.02;56.40
9187;BME280;7273;48.902;9.410;2024-03-02T15:03:02;96585.63;;;15.93;56.25
9187;BME280;7273;48.902;9.410;2024-03-02T15:05:30;96589.25;;;15.97;50.29
9187;BME280;7273;48.902;9.410;2024-03-02T15:07:55;96581.34;;;15.92;55.97
9187;BME280;7273;48.902;9.410;2024-03-02T15:10:24;96583.41;;;15.83;55.79
9187;BME280;7273;48.902;9.410;2024-03-02T15:12:49;96579.47;;;15.68;55.46
9187;BME280;7273;48.902;9.410;2024-03-02T15:15:15;96568.22;;;15.70;55.94
9187;BME280;7273;48.902;9.410;2024-03-02T15:17:41;96569.81;;;15.71;55.93
9187;BME280;7273;48.902;9.410;2024-03-02T15:20:07;96569.59;;;15.76;55.87
9187;BME280;7273;48.902;9.410;2024-03-02T15:22:32;96566.28;;;15.70;55.96
9187;BME280;7273;48.902;9.410;2024-03-02T15:24:58;96564.78;;;15.73;55.84
9187;BME280;7273;48.902;9.410;2024-03-02T15:27:23;96558.34;;;15.65;55.92
9187;BME280;7273;48.902;9.410;2024-03-02T15:29:50;96552.69;;;15.58;55.90
9187;BME280;7273;48.902;9.410;2024-03-02T15:32:17;96560.44;;;15.56;55.94
9187;BME280;7273;48.902;9.410;2024-03-02T15:34:42;96550.38;;;15.45;56.13
9187;BME280;7273;48.902;9.410;2024-03-02T15:37:08;96553.97;;;15.49;56.25
9187;BME280;7273;48.902;9.410;2024-03-02T15:39:34;96563.06;;;15.29;56.38
9187;BME280;7273;48.902;9.410;2024-03-02T15:41:59;96556.84;;;15.16;55.84
9187;BME280;7273;48.902;9.410;2024-03-02T15:44:25;96566.84;;;15.12;56.47
9187;BME280;7273;48.902;9.410;2024-03-02T15:46:50;96566.63;;;15.05;56.45
9187;BME280;7273;48.902;9.410;2024-03-02T15:49:15;96557.66;;;15.05;56.60
9187;BME280;7273;48.902;9.410;2024-03-02T15:51:41;96565.69;;;15.01;56.69
9187;BME280;7273;48.902;9.410;2024-03-02T15:54:12;96563.88;;;14.93;56.93
9187;BME280;7273;48.902;9.410;2024-03-02T15:56:38;96556.53;;;14.94;57.00
9187;BME280;7273;48.902;9.410;2024-03-02T15:59:04;96564.47;;;14.87;57.08
9187;BME280;7273;48.902;9.410;2024-03-02T16:01:31;96563.09;;;14.80;57.33
9187;BME280;7273;48.902;9.410;2024-03-02T16:03:56;96569.69;;;14.79;57.54
9187;BME280;7273;48.902;9.410;2024-03-02T16:06:22;96560.38;;;14.68;57.53
9187;BME280;7273;48.902;9.410;2024-03-02T16:08:47;96565.00;;;14.56;57.90
9187;BME280;7273;48.902;9.410;2024-03-02T16:11:13;96571.13;;;14.53;57.96
9187;BME280;7273;48.902;9.410;2024-03-02T16:13:38;96560.94;;;14.50;57.77
9187;BME280;7273;48.902;9.410;2024-03-02T16:16:04;96563.75;;;14.41;57.88
9187;BME280;7273;48.902;9.410;2024-03-02T16:18:29;96564.31;;;14.35;58.21
9187;BME280;7273;48.902;9.410;2024-03-02T16:20:54;96571.41;;;14.27;58.38
9187;BME280;7273;48.902;9.410;2024-03-02T16:23:20;96560.50;;;14.15;58.49
9187;BME280;7273;48.902;9.410;2024-03-02T16:25:45;96558.78;;;14.11;58.31
9187;BME280;7273;48.902;9.410;2024-03-02T16:28:10;96556.72;;;14.08;58.38
9187;BME280;7273;48.902;9.410;2024-03-02T16:30:36;96557.94;;;13.98;58.29
9187;BME280;7273;48.902;9.410;2024-03-02T16:33:02;96561.47;;;13.99;58.63
9187;BME280;7273;48.902;9.410;2024-03-02T16:35:27;96554.31;;;13.94;58.17
9187;BME280;7273;48.902;9.410;2024-03-02T16:37:53;96552.13;;;13.88;58.59
9187;BME280;7273;48.902;9.410;2024-03-02T16:40:18;96546.31;;;13.77;58.59
9187;BME280;7273;48.902;9.410;2024-03-02T16:42:44;96547.66;;;13.71;58.45
9187;BME280;7273;48.902;9.410;2024-03-02T16:45:09;96544.34;;;13.66;58.69
9187;BME280;7273;48.902;9.410;2024-03-02T16:47:34;96553.50;;;13.61;58.59
9187;BME280;7273;48.902;9.410;2024-03-02T16:50:00;96552.34;;;13.62;58.60
9187;BME280;7273;48.902;9.410;2024-03-02T16:52:26;96554.50;;;13.57;58.73
9187;BME280;7273;48.902;9.410;2024-03-02T16:54:53;96554.69;;;13.52;58.85
9187;BME280;7273;48.902;9.410;2024-03-02T16:57:18;96558.53;;;13.50;59.03
9187;BME280;7273;48.902;9.410;2024-03-02T16:59:44;96559.31;;;13.51;59.19
9187;BME280;7273;48.902;9.410;2024-03-02T17:02:09;96555.66;;;13.47;58.92
9187;BME280;7273;48.902;9.410;2024-03-02T17:04:37;96561.31;;;13.42;57.59
9187;BME280;7273;48.902;9.410;2024-03-02T17:07:04;96554.16;;;13.37;58.94
9187;BME280;7273;48.902;9.410;2024-03-02T17:09:29;96546.34;;;13.36;59.28
9187;BME280;7273;48.902;9.410;2024-03-02T17:11:55;96565.09;;;13.29;59.49
9187;BME280;7273;48.902;9.410;2024-03-02T17:14:20;96556.28;;;13.32;59.25
9187;BME280;7273;48.902;9.410;2024-03-02T17:16:45;96569.59;;;13.25;59.55
9187;BME280;7273;48.902;9.410;2024-03-02T17:19:11;96572.16;;;13.21;59.47
9187;BME280;7273;48.902;9.410;2024-03-02T17:21:36;96574.06;;;13.21;59.83
9187;BME280;7273;48.902;9.410;2024-03-02T17:24:02;96573.16;;;13.17;59.89
9187;BME280;7273;48.902;9.410;2024-03-02T17:26:30;96579.91;;;13.11;60.22
9187;BME280;7273;48.902;9.410;2024-03-02T17:28:56;96575.25;;;13.11;60.15
9187;BME280;7273;48.902;9.410;2024-03-02T17:31:21;96574.66;;;13.06;60.11
9187;BME280;7273;48.902;9.410;2024-03-02T17:33:47;96574.00;;;13.00;60.46
9187;BME280;7273;48.902;9.410;2024-03-02T17:36:13;96573.72;;;12.93;60.40
9187;BME280;7273;48.902;9.410;2024-03-02T17:38:40;96576.19;;;12.86;60.78
9187;BME280;7273;48.902;9.410;2024-03-02T17:41:05;96568.41;;;12.76;60.83
9187;BME280;7273;48.902;9.410;2024-03-02T17:43:36;96567.59;;;12.76;60.83
9187;BME280;7273;48.902;9.410;2024-03-02T17:46:01;96573.53;;;12.69;60.92
9187;BME280;7273;48.902;9.410;2024-03-02T17:48:27;96568.13;;;12.69;60.77
9187;BME280;7273;48.902;9.410;2024-03-02T17:50:53;96578.97;;;12.69;60.87
9187;BME280;7273;48.902;9.410;2024-03-02T17:53:18;96575.28;;;12.65;60.84
9187;BME280;7273;48.902;9.410;2024-03-02T17:55:44;96575.03;;;12.58;61.21
9187;BME280;7273;48.902;9.410;2024-03-02T17:58:09;96578.66;;;12.62;61.14
9187;BME280;7273;48.902;9.410;2024-03-02T18:00:35;96581.22;;;12.59;61.00
9187;BME280;7273;48.902;9.410;2024-03-02T18:03:00;96589.25;;;12.55;61.10
9187;BME280;7273;48.902;9.410;2024-03-02T18:05:26;96586.06;;;12.53;61.18
9187;BME280;7273;48.902;9.410;2024-03-02T18:07:52;96583.19;;;12.50;61.53
9187;BME280;7273;48.902;9.410;2024-03-02T18:10:17;96594.88;;;12.42;61.52
9187;BME280;7273;48.902;9.410;2024-03-02T18:12:42;96585.63;;;12.34;61.93
9187;BME280;7273;48.902;9.410;2024-03-02T18:15:08;96590.91;;;12.31;61.76
9187;BME280;7273;48.902;9.410;2024-03-02T18:17:34;96587.72;;;12.29;62.26
9187;BME280;7273;48.902;9.410;2024-03-02T18:20:00;96585.19;;;12.24;62.14
9187;BME280;7273;48.902;9.410;2024-03-02T18:22:26;96588.38;;;12.17;62.21
9187;BME280;7273;48.902;9.410;2024-03-02T18:24:51;96582.16;;;12.16;62.31
9187;BME280;7273;48.902;9.410;2024-03-02T18:27:16;96580.75;;;12.19;62.43